Time;durP1;ratioP1;P1;durP2;ratioP2;P2;SDS_P1;SDS_P2;PMS_P1;PMS_P2;Temp;Humidity;BMP_temperature;BMP_pressure;BME280_temperature;BME280_humidity;BME280_pressure;Samples;Min_cycle;Max_cycle;Signal;HPM_P1;HPM_P2
2023/02/15 00:01:29;;;;;;;34.60;20.97;;;5.20;99.90;;;;;;5079779;28;20497;-72
2023/02/15 00:03:56;;;;;;;35.77;21.40;;;5.20;99.90;;;;;;5079520;28;20454;-72
2023/02/15 00:06:23;;;;;;;36.30;20.10;;;5.20;99.90;;;;;;5078877;28;20454;-71
2023/02/15 00:08:51;;;;;;;28.93;20.67;;;5.10;99.90;;;;;;5078722;28;20548;-72
2023/02/15 00:11:39;;;;;;;36.57;20.67;;;5.10;99.90;;;;;;5078848;28;20552;-72
2023/02/15 00:14:06;;;;;;;33.37;20.47;;;5.00;99.90;;;;;;5079328;28;20527;-71
2023/02/15 00:16:34;;;;;;;35.13;20.90;;;5.00;99.90;;;;;;5078722;28;20458;-72
2023/02/15 00:19:01;;;;;;;34.17;21.63;;;5.00;99.90;;;;;;5078969;28;20473;-71
2023/02/15 00:21:29;;;;;;;34.50;21.87;;;5.00;99.90;;;;;;5077374;28;20458;-70
2023/02/15 00:23:58;;;;;;;37.10;20.83;;;5.00;99.90;;;;;;5077828;28;20462;-71
2023/02/15 00:26:26;;;;;;;35.93;20.60;;;5.00;99.90;;;;;;5078032;28;20465;-70
2023/02/15 00:28:53;;;;;;;38.70;21.73;;;5.00;99.90;;;;;;5078279;28;20466;-71
2023/02/15 00:31:20;;;;;;;32.17;21.10;;;4.90;99.90;;;;;;5077851;28;20473;-71
2023/02/15 00:33:47;;;;;;;37.63;21.80;;;4.90;99.90;;;;;;5078783;28;20511;-72
2023/02/15 00:36:14;;;;;;;32.73;22.30;;;4.90;99.90;;;;;;5078311;28;20460;-72
2023/02/15 00:38:41;;;;;;;36.27;22.73;;;4.90;99.90;;;;;;5078494;28;20568;-71
2023/02/15 00:41:10;;;;;;;36.40;21.90;;;4.90;99.90;;;;;;5077907;28;20565;-71
2023/02/15 00:43:37;;;;;;;38.53;23.13;;;4.80;99.90;;;;;;5078031;28;20546;-71
2023/02/15 00:46:06;;;;;;;38.30;22.03;;;4.80;99.90;;;;;;5077640;28;20464;-71
2023/02/15 00:48:33;;;;;;;38.10;22.60;;;4.80;99.90;;;;;;5077567;28;20454;-72
2023/02/15 00:51:01;;;;;;;34.77;22.23;;;4.80;99.90;;;;;;5077760;28;20460;-71
2023/02/15 00:53:29;;;;;;;39.30;23.70;;;4.80;99.90;;;;;;5077747;28;20461;-71
2023/02/15 00:55:56;;;;;;;37.57;23.07;;;4.80;99.90;;;;;;5077625;28;20465;-71
2023/02/15 00:58:24;;;;;;;37.70;20.17;;;4.80;99.90;;;;;;5077700;28;20481;-71
2023/02/15 01:00:52;;;;;;;44.27;23.90;;;4.80;99.90;;;;;;5078022;28;20520;-71
2023/02/15 01:03:21;;;;;;;41.17;24.80;;;4.70;99.90;;;;;;5078568;28;20545;-71
2023/02/15 01:05:49;;;;;;;33.17;21.03;;;4.70;99.90;;;;;;5080841;28;20529;-72
2023/02/15 01:08:16;;;;;;;39.77;25.00;;;4.70;99.90;;;;;;5082112;28;20552;-72
2023/02/15 01:10:45;;;;;;;34.47;22.30;;;4.70;99.90;;;;;;5082879;28;20469;-71
2023/02/15 01:13:12;;;;;;;35.57;23.10;;;4.70;99.90;;;;;;5081458;28;20486;-73
2023/02/15 01:15:40;;;;;;;43.40;24.07;;;4.70;99.90;;;;;;5079834;28;20533;-71
2023/02/15 01:18:07;;;;;;;38.50;22.57;;;4.70;99.90;;;;;;5077453;28;20473;-70
2023/02/15 01:20:38;;;;;;;36.50;21.07;;;4.60;99.90;;;;;;5077908;28;20520;-70
2023/02/15 01:23:06;;;;;;;47.83;23.83;;;4.60;99.90;;;;;;5077324;28;20507;-73
2023/02/15 01:25:35;;;;;;;43.83;22.63;;;4.60;99.90;;;;;;5077449;28;20619;-71
2023/02/15 01:28:02;;;;;;;38.47;23.20;;;4.60;99.90;;;;;;5077518;28;20530;-71
2023/02/15 01:30:29;;;;;;;35.37;21.57;;;4.60;99.90;;;;;;5076746;28;20454;-72
2023/02/15 01:32:57;;;;;;;37.33;22.93;;;4.60;99.90;;;;;;5077253;28;20454;-71
2023/02/15 01:35:25;;;;;;;41.33;23.50;;;4.60;99.90;;;;;;5077710;28;20478;-72
2023/02/15 01:37:51;;;;;;;40.50;24.50;;;4.60;99.90;;;;;;5078643;28;20870;-72
2023/02/15 01:40:19;;;;;;;38.40;22.80;;;4.50;99.90;;;;;;5078978;28;20509;-71
2023/02/15 01:42:46;;;;;;;38.57;22.13;;;4.50;99.90;;;;;;5078658;28;20492;-72
2023/02/15 01:45:22;;;;;;;34.97;21.60;;;4.50;99.90;;;;;;5079512;28;20485;-72
2023/02/15 01:47:53;;;;;;;37.20;23.60;;;4.50;99.90;;;;;;5084547;28;20487;-72
2023/02/15 01:50:26;;;;;;;38.17;23.20;;;4.40;99.90;;;;;;5083320;28;20434;-72
2023/02/15 01:52:59;;;;;;;37.40;22.47;;;4.40;99.90;;;;;;5080032;28;20437;-72
2023/02/15 01:55:30;;;;;;;41.87;23.80;;;4.40;99.90;;;;;;5078878;28;20895;-72
2023/02/15 01:57:57;;;;;;;35.57;22.90;;;4.40;99.90;;;;;;5078539;28;20498;-72
2023/02/15 02:00:24;;;;;;;37.30;22.83;;;4.30;99.90;;;;;;5077759;28;20457;-72
2023/02/15 02:02:55;;;;;;;39.17;23.90;;;4.30;99.90;;;;;;5077832;28;20515;-72
2023/02/15 02:05:23;;;;;;;41.73;23.77;;;4.30;99.90;;;;;;5078250;28;20553;-70
2023/02/15 02:07:53;;;;;;;40.10;24.10;;;4.30;99.90;;;;;;5078246;28;20486;-72
2023/02/15 02:10:23;;;;;;;38.73;23.00;;;4.30;99.90;;;;;;5077573;28;20473;-72
2023/02/15 02:12:53;;;;;;;42.80;24.00;;;4.30;99.90;;;;;;5077983;28;20458;-73
2023/02/15 02:15:24;;;;;;;45.80;23.77;;;4.20;99.90;;;;;;5078282;28;20497;-72
2023/02/15 02:18:02;;;;;;;36.87;23.60;;;4.20;99.90;;;;;;5078265;28;20477;-72
2023/02/15 02:20:53;;;;;;;40.20;24.40;;;4.20;99.90;;;;;;5077614;28;20890;-73
2023/02/15 02:23:28;;;;;;;42.77;24.67;;;4.20;99.90;;;;;;5077775;28;20442;-71
2023/02/15 02:26:37;;;;;;;39.33;25.03;;;4.20;99.90;;;;;;5077765;28;20464;-72
2023/02/15 02:29:39;;;;;;;39.47;24.23;;;4.20;99.90;;;;;;5077228;28;20463;-72
2023/02/15 02:32:37;;;;;;;42.50;23.93;;;4.10;99.90;;;;;;5045158;28;20462;-72
2023/02/15 02:35:14;;;;;;;42.93;24.67;;;4.10;99.90;;;;;;5077212;28;20549;-72
2023/02/15 02:37:51;;;;;;;51.43;24.83;;;4.10;99.90;;;;;;5077749;28;20817;-72
2023/02/15 02:40:25;;;;;;;38.93;23.50;;;4.10;99.90;;;;;;5077015;28;20460;-71
2023/02/15 02:42:59;;;;;;;48.60;25.43;;;4.00;99.90;;;;;;5057165;28;20462;-71
2023/02/15 02:45:29;;;;;;;43.17;25.73;;;4.00;99.90;;;;;;5056100;28;20435;-72
2023/02/15 02:48:01;;;;;;;44.03;25.50;;;4.00;99.90;;;;;;5057245;28;20554;-72
2023/02/15 02:50:31;;;;;;;47.93;25.63;;;4.00;99.90;;;;;;5056740;28;20435;-70
2023/02/15 02:52:59;;;;;;;45.97;24.40;;;4.00;99.90;;;;;;5056671;28;20542;-71
2023/02/15 02:55:30;;;;;;;45.53;25.00;;;4.00;99.90;;;;;;5056662;28;20456;-72
2023/02/15 02:58:05;;;;;;;48.53;26.40;;;4.00;99.90;;;;;;5056360;28;20467;-71
2023/02/15 03:00:36;;;;;;;44.73;25.80;;;3.90;99.90;;;;;;5056702;28;20489;-72
2023/02/15 03:03:07;;;;;;;49.50;26.43;;;3.90;99.90;;;;;;5057227;28;20454;-71
2023/02/15 03:05:39;;;;;;;53.33;26.27;;;3.90;99.90;;;;;;5057150;28;20534;-71
2023/02/15 03:08:09;;;;;;;42.67;25.83;;;3.90;99.90;;;;;;5057595;28;20479;-71
2023/02/15 03:10:39;;;;;;;53.77;28.53;;;3.80;99.90;;;;;;5057785;28;20596;-71
2023/02/15 03:13:06;;;;;;;51.50;27.60;;;3.80;99.90;;;;;;5056995;28;20558;-72
2023/02/15 03:18:21;;;;;;;46.07;26.33;;;3.80;99.90;;;;;;5055889;28;20467;-71
2023/02/15 03:20:50;;;;;;;50.47;27.40;;;3.80;99.90;;;;;;5057355;28;20534;-72
2023/02/15 03:23:20;;;;;;;49.37;27.23;;;3.80;99.90;;;;;;5056523;28;20501;-72
2023/02/15 03:25:51;;;;;;;50.17;27.13;;;3.70;99.90;;;;;;5057519;28;20487;-71
2023/02/15 03:28:24;;;;;;;53.90;28.00;;;3.70;99.90;;;;;;5057943;28;20471;-71
2023/02/15 03:30:55;;;;;;;51.73;27.47;;;3.70;99.90;;;;;;5058009;28;20559;-71
2023/02/15 03:33:24;;;;;;;47.87;27.73;;;3.60;99.90;;;;;;5058601;28;20481;-70
2023/02/15 03:35:57;;;;;;;52.93;28.43;;;3.60;99.90;;;;;;5058808;28;20471;-72
2023/02/15 03:38:30;;;;;;;53.50;28.60;;;3.60;99.90;;;;;;5058230;28;20467;-72
2023/02/15 03:41:12;;;;;;;59.67;29.63;;;3.60;99.90;;;;;;5062542;28;20668;-71
2023/02/15 03:43:47;;;;;;;55.90;29.73;;;3.60;99.90;;;;;;5077105;28;20497;-70
2023/02/15 03:46:21;;;;;;;59.70;30.53;;;3.50;99.90;;;;;;5077078;28;20442;-71
2023/02/15 03:48:52;;;;;;;65.93;31.87;;;3.50;99.90;;;;;;5076417;28;20473;-71
2023/02/15 03:51:34;;;;;;;61.83;30.83;;;3.50;99.90;;;;;;5077136;28;20504;-72
2023/02/15 03:54:04;;;;;;;64.97;31.27;;;3.50;99.90;;;;;;5076683;28;20447;-70
2023/02/15 03:56:31;;;;;;;57.00;29.47;;;3.40;99.90;;;;;;5077753;28;20454;-71
2023/02/15 04:01:59;;;;;;;57.33;30.47;;;3.40;99.90;;;;;;5079468;28;20430;-71
2023/02/15 04:04:32;;;;;;;59.37;31.10;;;3.30;99.90;;;;;;5080046;28;20449;-72
2023/02/15 04:07:01;;;;;;;72.37;34.20;;;3.30;99.90;;;;;;5080371;28;20453;-71
2023/02/15 04:12:13;;;;;;;66.60;32.10;;;3.30;99.90;;;;;;5084076;28;20468;-72
2023/02/15 04:17:24;;;;;;;63.70;32.00;;;3.30;99.90;;;;;;5084907;28;20519;-71
2023/02/15 04:25:21;;;;;;;61.93;32.07;;;3.20;99.90;;;;;;5081762;28;20433;-71
2023/02/15 04:27:51;;;;;;;59.40;29.57;;;3.10;99.90;;;;;;5081245;28;20497;-71
2023/02/15 04:30:19;;;;;;;62.03;30.20;;;3.10;99.90;;;;;;5080818;28;20541;-70
2023/02/15 04:32:46;;;;;;;62.97;31.37;;;3.10;99.90;;;;;;5080253;28;20551;-71
2023/02/15 04:35:13;;;;;;;59.60;31.27;;;3.00;99.90;;;;;;5080429;28;20557;-72
2023/02/15 04:37:42;;;;;;;61.30;31.50;;;3.00;99.90;;;;;;5080784;28;20763;-72
2023/02/15 04:40:11;;;;;;;56.10;28.50;;;2.90;99.90;;;;;;5080363;28;20469;-72
2023/02/15 04:42:38;;;;;;;64.67;29.23;;;2.90;99.90;;;;;;5080161;28;20486;-72
2023/02/15 04:45:06;;;;;;;64.03;32.10;;;2.90;99.90;;;;;;5080545;28;20973;-71
2023/02/15 04:47:32;;;;;;;59.60;30.67;;;2.90;99.90;;;;;;5080086;28;20765;-70
2023/02/15 04:49:59;;;;;;;57.73;29.83;;;2.80;99.90;;;;;;5080311;28;20462;-71
2023/02/15 04:52:26;;;;;;;58.43;31.40;;;2.80;99.90;;;;;;5080103;28;20537;-71
2023/02/15 04:54:55;;;;;;;67.93;31.63;;;2.70;99.90;;;;;;5081543;28;20525;-71
2023/02/15 04:57:22;;;;;;;63.67;33.13;;;2.60;99.90;;;;;;5082039;28;20480;-71
2023/02/15 04:59:48;;;;;;;57.43;30.10;;;2.60;99.90;;;;;;5080862;28;20482;-71
2023/02/15 05:02:15;;;;;;;63.63;30.57;;;2.50;99.90;;;;;;5082650;28;20537;-72
2023/02/15 05:04:42;;;;;;;59.40;28.77;;;2.50;99.90;;;;;;5082954;28;20984;-71
2023/02/15 05:07:09;;;;;;;60.10;31.80;;;2.50;99.90;;;;;;5081784;28;20473;-71
2023/02/15 05:09:36;;;;;;;60.00;29.43;;;2.50;99.90;;;;;;5079690;28;20523;-71
2023/02/15 05:12:04;;;;;;;59.80;31.97;;;2.40;99.90;;;;;;5080045;28;20489;-71
2023/02/15 05:14:31;;;;;;;52.30;29.47;;;2.40;99.90;;;;;;5080204;28;20553;-72
2023/02/15 05:17:01;;;;;;;59.60;28.77;;;2.40;99.90;;;;;;5079590;28;20541;-71
2023/02/15 05:19:28;;;;;;;52.33;27.63;;;2.40;99.90;;;;;;5081461;28;20478;-71
2023/02/15 05:21:55;;;;;;;60.03;29.97;;;2.40;99.90;;;;;;5080599;28;20532;-71
2023/02/15 05:29:53;;;;;;;59.00;29.73;;;2.30;99.90;;;;;;5101697;28;20864;-72
2023/02/15 05:32:20;;;;;;;59.30;29.43;;;2.30;99.90;;;;;;5102307;28;20497;-71
2023/02/15 05:34:47;;;;;;;56.47;30.40;;;2.30;99.90;;;;;;5103899;28;20616;-71
2023/02/15 05:37:14;;;;;;;65.57;30.90;;;2.20;99.90;;;;;;5102601;28;20842;-71
2023/02/15 05:39:41;;;;;;;62.07;31.27;;;2.20;99.90;;;;;;5103689;28;20832;-70
2023/02/15 05:42:09;;;;;;;60.90;29.53;;;2.20;99.90;;;;;;5103662;28;20953;-72
2023/02/15 05:44:36;;;;;;;58.97;31.87;;;2.20;99.90;;;;;;5105614;28;20511;-71
2023/02/15 05:47:04;;;;;;;64.77;32.13;;;2.10;99.90;;;;;;5104984;28;20452;-71
2023/02/15 05:49:31;;;;;;;66.27;30.13;;;2.00;99.90;;;;;;5104545;28;20521;-71
2023/02/15 05:51:58;;;;;;;64.80;32.10;;;1.90;99.90;;;;;;5103968;28;20468;-71
2023/02/15 05:54:25;;;;;;;57.17;30.53;;;1.90;99.90;;;;;;5104851;28;20824;-71
2023/02/15 05:56:52;;;;;;;65.47;32.57;;;1.90;99.90;;;;;;5104189;28;20449;-71
2023/02/15 05:59:20;;;;;;;101.33;51.00;;;1.80;99.90;;;;;;5104899;28;20524;-70
2023/02/15 06:01:47;;;;;;;71.60;32.27;;;1.80;99.90;;;;;;5102869;28;20544;-72
2023/02/15 06:04:14;;;;;;;71.63;31.60;;;1.90;99.90;;;;;;5104665;28;20528;-71
2023/02/15 06:06:41;;;;;;;71.90;31.80;;;1.90;99.90;;;;;;5104680;28;20525;-71
2023/02/15 06:09:08;;;;;;;57.10;29.83;;;1.90;99.90;;;;;;5104282;28;20524;-71
2023/02/15 06:11:34;;;;;;;64.93;31.70;;;1.90;99.90;;;;;;5105595;28;20790;-71
2023/02/15 06:14:01;;;;;;;69.57;32.60;;;1.90;99.90;;;;;;5104531;28;20540;-71
2023/02/15 06:16:30;;;;;;;75.40;32.43;;;1.90;99.90;;;;;;5102868;28;20458;-71
2023/02/15 06:18:58;;;;;;;67.80;32.53;;;1.90;99.90;;;;;;5103351;28;20507;-72
2023/02/15 06:21:25;;;;;;;76.53;32.60;;;1.90;99.90;;;;;;5102193;28;20457;-71
2023/02/15 06:23:52;;;;;;;65.13;31.53;;;1.90;99.90;;;;;;5104491;28;20492;-71
2023/02/15 06:26:19;;;;;;;66.40;33.60;;;1.90;99.90;;;;;;5104069;28;20487;-71
2023/02/15 06:28:46;;;;;;;79.67;32.30;;;1.90;99.90;;;;;;5104034;28;20541;-71
2023/02/15 06:31:13;;;;;;;71.60;31.10;;;1.90;99.90;;;;;;5093974;28;20458;-72
2023/02/15 06:33:41;;;;;;;64.93;31.10;;;1.80;99.90;;;;;;5083948;28;20489;-75
2023/02/15 06:36:08;;;;;;;63.60;31.30;;;1.70;99.90;;;;;;5083278;28;20545;-72
2023/02/15 06:38:35;;;;;;;69.27;31.50;;;1.70;99.90;;;;;;5084132;28;20814;-71
2023/02/15 06:41:02;;;;;;;68.33;32.37;;;1.70;99.90;;;;;;5082141;28;20964;-71
2023/02/15 06:43:29;;;;;;;68.47;32.57;;;1.60;99.90;;;;;;5083900;28;20450;-72
2023/02/15 06:45:56;;;;;;;69.27;31.17;;;1.60;99.90;;;;;;5082706;28;20537;-70
2023/02/15 06:48:23;;;;;;;71.40;31.20;;;1.60;99.90;;;;;;5082835;28;20453;-71
2023/02/15 06:50:51;;;;;;;71.13;32.73;;;1.70;99.90;;;;;;5083706;28;20458;-70
2023/02/15 06:53:18;;;;;;;68.13;33.27;;;1.70;99.90;;;;;;5081406;28;21109;-72
2023/02/15 06:55:45;;;;;;;93.37;46.30;;;1.70;99.90;;;;;;5083683;28;20458;-72
2023/02/15 06:58:11;;;;;;;69.70;31.70;;;1.70;99.90;;;;;;5081527;28;20552;-72
2023/02/15 07:00:38;;;;;;;73.07;30.70;;;1.70;99.90;;;;;;5083809;28;20521;-71
2023/02/15 07:03:05;;;;;;;76.17;31.47;;;1.70;99.90;;;;;;5083588;28;20465;-71
2023/02/15 07:05:35;;;;;;;73.97;33.17;;;1.70;99.90;;;;;;5083941;28;20454;-72
2023/02/15 07:08:03;;;;;;;68.93;32.23;;;1.80;99.90;;;;;;5083326;28;20496;-72
2023/02/15 07:10:30;;;;;;;83.83;33.50;;;1.80;99.90;;;;;;5084704;28;20482;-72
2023/02/15 07:12:56;;;;;;;63.30;31.13;;;1.80;99.90;;;;;;5083915;28;20987;-72
2023/02/15 07:15:23;;;;;;;72.10;31.00;;;1.80;99.90;;;;;;5084492;28;20455;-71
2023/02/15 07:17:50;;;;;;;76.50;35.23;;;1.80;99.90;;;;;;5083150;28;20472;-72
2023/02/15 07:20:18;;;;;;;75.40;35.73;;;1.80;99.90;;;;;;5082660;28;20565;-71
2023/02/15 07:22:45;;;;;;;82.67;38.97;;;1.80;99.90;;;;;;5083580;28;20462;-71
2023/02/15 07:25:15;;;;;;;77.43;34.10;;;1.90;99.90;;;;;;5082981;28;20450;-71
2023/02/15 07:27:42;;;;;;;90.03;36.33;;;1.90;99.90;;;;;;5083165;28;20454;-71
2023/02/15 07:30:12;;;;;;;88.03;33.17;;;1.90;99.90;;;;;;5083681;28;20533;-71
2023/02/15 07:33:22;;;;;;;77.33;34.63;;;1.90;99.90;;;;;;5085681;28;20950;-71
2023/02/15 07:35:26;;;;;;;82.83;34.00;;;2.00;99.90;;;;;;5087635;28;20454;-72
2023/02/15 07:37:53;;;;;;;82.93;36.00;;;2.00;99.90;;;;;;5087204;28;20514;-73
2023/02/15 07:40:23;;;;;;;67.47;32.87;;;2.00;99.90;;;;;;5086754;28;20482;-71
2023/02/15 07:42:52;;;;;;;66.13;31.97;;;2.10;99.90;;;;;;5088845;28;20516;-71
2023/02/15 07:45:19;;;;;;;79.87;33.00;;;2.10;99.90;;;;;;5088669;28;20450;-71
2023/02/15 07:47:46;;;;;;;79.37;34.17;;;2.10;99.90;;;;;;5085774;28;20919;-72
2023/02/15 07:50:13;;;;;;;86.10;34.37;;;2.20;99.90;;;;;;5088789;28;20540;-72
2023/02/15 07:52:40;;;;;;;77.60;35.03;;;2.20;99.90;;;;;;5088078;28;20491;-71
2023/02/15 07:55:08;;;;;;;68.17;32.60;;;2.30;99.90;;;;;;5086281;28;20601;-71
2023/02/15 07:57:36;;;;;;;74.17;36.03;;;2.30;99.90;;;;;;5086674;28;20531;-73
2023/02/15 08:00:04;;;;;;;83.00;33.60;;;2.30;99.90;;;;;;5086440;28;20569;-72
2023/02/15 08:02:30;;;;;;;79.73;33.60;;;2.40;99.90;;;;;;5086575;28;20569;-71
2023/02/15 08:04:57;;;;;;;82.27;33.93;;;2.30;99.90;;;;;;5086765;28;20464;-72
2023/02/15 08:07:24;;;;;;;71.13;32.07;;;2.40;99.90;;;;;;5086612;28;20457;-72
2023/02/15 08:09:51;;;;;;;77.17;34.37;;;2.30;99.90;;;;;;5087208;28;20454;-71
2023/02/15 08:12:18;;;;;;;87.40;34.30;;;2.30;99.90;;;;;;5086423;28;20489;-71
2023/02/15 08:14:46;;;;;;;78.17;35.20;;;2.40;99.90;;;;;;5086677;28;20509;-71
2023/02/15 08:17:13;;;;;;;80.53;33.50;;;2.30;99.90;;;;;;5086071;28;20497;-72
2023/02/15 08:19:40;;;;;;;71.17;31.10;;;2.30;99.90;;;;;;5085064;28;20561;-73
2023/02/15 08:22:10;;;;;;;70.10;31.70;;;2.30;99.90;;;;;;5084910;28;20925;-71
2023/02/15 08:24:38;;;;;;;78.60;33.33;;;2.40;99.90;;;;;;5086893;28;20450;-72
2023/02/15 08:27:05;;;;;;;73.70;31.30;;;2.40;99.90;;;;;;5084774;28;20454;-72
2023/02/15 08:29:33;;;;;;;80.03;32.30;;;2.50;99.90;;;;;;5084987;28;20549;-71
2023/02/15 08:32:03;;;;;;;92.97;37.43;;;2.40;99.90;;;;;;5087294;28;20526;-72
2023/02/15 08:34:32;;;;;;;68.10;33.80;;;2.50;99.90;;;;;;5085829;28;20446;-72
2023/02/15 08:36:59;;;;;;;73.10;34.10;;;2.50;99.90;;;;;;5086501;28;20541;-71
2023/02/15 08:39:26;;;;;;;80.33;34.10;;;2.60;99.90;;;;;;5087226;28;20478;-71
2023/02/15 08:41:53;;;;;;;73.47;32.90;;;2.80;99.90;;;;;;5086685;28;20670;-71
2023/02/15 08:44:20;;;;;;;72.07;31.57;;;2.90;99.90;;;;;;5086635;28;20490;-71
2023/02/15 08:46:49;;;;;;;66.13;32.23;;;2.90;99.90;;;;;;5085736;28;20478;-72
2023/02/15 08:49:19;;;;;;;61.97;35.67;;;2.90;99.90;;;;;;5086603;28;20450;-71
2023/02/15 08:51:47;;;;;;;65.23;31.00;;;2.90;99.90;;;;;;5086403;28;20462;-72
2023/02/15 08:54:16;;;;;;;70.53;31.90;;;3.00;99.90;;;;;;5084766;28;20473;-71
2023/02/15 08:56:44;;;;;;;73.50;32.13;;;3.00;99.90;;;;;;5086321;28;20450;-72
2023/02/15 08:59:15;;;;;;;71.57;31.20;;;3.00;99.90;;;;;;5086168;28;20477;-72
2023/02/15 09:01:42;;;;;;;70.40;31.37;;;3.00;99.90;;;;;;5086028;28;20473;-71
2023/02/15 09:04:10;;;;;;;59.90;31.33;;;3.10;99.90;;;;;;5085438;28;20461;-72
2023/02/15 09:06:39;;;;;;;68.83;33.03;;;3.20;99.90;;;;;;5085132;28;20545;-72
2023/02/15 09:09:07;;;;;;;59.57;30.07;;;3.30;99.90;;;;;;5085814;28;20481;-72
2023/02/15 09:11:36;;;;;;;66.43;31.83;;;3.40;99.90;;;;;;5085386;28;20530;-72
2023/02/15 09:14:06;;;;;;;65.97;31.30;;;3.50;99.90;;;;;;5085766;28;20521;-71
2023/02/15 09:16:35;;;;;;;66.17;30.60;;;3.60;99.90;;;;;;5085433;28;20446;-71
2023/02/15 09:19:04;;;;;;;65.43;31.60;;;3.60;99.90;;;;;;5085527;28;20475;-72
2023/02/15 09:21:32;;;;;;;60.83;29.13;;;3.70;99.90;;;;;;5085727;28;20480;-71
2023/02/15 09:24:02;;;;;;;66.50;30.87;;;3.80;99.90;;;;;;5085380;28;20561;-72
2023/02/15 09:26:31;;;;;;;58.67;30.40;;;3.90;99.90;;;;;;5084800;28;20489;-73
2023/02/15 09:29:00;;;;;;;58.70;30.30;;;4.00;99.90;;;;;;5084914;28;20545;-72
2023/02/15 09:31:29;;;;;;;53.50;28.93;;;4.10;99.90;;;;;;5085793;28;20447;-71
2023/02/15 09:33:56;;;;;;;52.17;26.70;;;4.30;99.90;;;;;;5085958;28;20946;-72
2023/02/15 09:36:25;;;;;;;56.50;28.00;;;4.40;99.90;;;;;;5085889;28;20456;-72
2023/02/15 09:39:00;;;;;;;46.67;25.67;;;4.40;99.90;;;;;;5085945;28;20531;-72
2023/02/15 09:41:59;;;;;;;47.57;26.63;;;4.30;99.90;;;;;;5085241;28;20488;-71
2023/02/15 09:44:38;;;;;;;47.33;25.47;;;4.30;99.90;;;;;;5085102;28;20525;-71
2023/02/15 09:47:25;;;;;;;49.80;27.40;;;4.20;99.90;;;;;;5091680;28;20524;-72
2023/02/15 09:50:01;;;;;;;56.00;27.90;;;4.10;99.90;;;;;;5106501;28;20429;-71
2023/02/15 09:52:47;;;;;;;37.90;24.30;;;4.20;99.90;;;;;;5103485;28;20854;-73
2023/02/15 09:55:39;;;;;;;43.50;22.90;;;4.00;99.90;;;;;;5102725;28;20622;-72
2023/02/15 09:58:18;;;;;;;47.93;25.20;;;3.80;99.90;;;;;;5105201;28;20483;-71
2023/02/15 10:00:54;;;;;;;52.93;27.13;;;3.90;99.90;;;;;;5105888;28;20552;-73
2023/02/15 10:03:34;;;;;;;57.40;29.17;;;3.90;99.90;;;;;;5105669;28;20433;-72
2023/02/15 10:06:15;;;;;;;43.47;25.10;;;4.00;99.90;;;;;;5105821;28;20470;-72
2023/02/15 10:09:02;;;;;;;46.10;24.10;;;4.00;99.90;;;;;;5090596;28;20575;-72
2023/02/15 10:11:40;;;;;;;42.63;24.87;;;4.00;99.90;;;;;;5085666;28;20498;-72
2023/02/15 10:14:37;;;;;;;44.87;24.60;;;4.00;99.90;;;;;;5085401;28;20435;-72
2023/02/15 10:17:17;;;;;;;38.83;23.77;;;4.10;99.90;;;;;;5079712;28;20454;-72
2023/02/15 10:19:57;;;;;;;40.20;23.57;;;4.10;99.90;;;;;;5084169;28;20476;-72
2023/02/15 10:22:34;;;;;;;36.20;23.17;;;4.10;99.90;;;;;;5084281;28;20442;-71
2023/02/15 10:25:16;;;;;;;39.33;22.60;;;4.20;99.90;;;;;;5083060;28;20446;-71
2023/02/15 10:27:47;;;;;;;39.90;22.93;;;4.10;99.90;;;;;;5083023;28;20446;-71
2023/02/15 10:30:16;;;;;;;40.27;22.10;;;4.20;99.90;;;;;;5085339;28;20454;-72
2023/02/15 10:32:57;;;;;;;40.93;22.77;;;4.30;99.90;;;;;;5085958;28;20478;-72
2023/02/15 10:35:31;;;;;;;36.20;22.17;;;4.30;99.90;;;;;;5085925;28;20449;-72
2023/02/15 10:38:11;;;;;;;37.30;22.77;;;4.30;99.90;;;;;;5085256;28;20808;-72
2023/02/15 10:40:47;;;;;;;39.00;23.37;;;4.30;99.90;;;;;;5083009;28;20561;-72
2023/02/15 10:43:29;;;;;;;36.60;23.10;;;4.30;99.90;;;;;;5081706;28;20505;-72
2023/02/15 10:46:10;;;;;;;39.83;23.80;;;4.20;99.90;;;;;;5081737;28;20498;-72
2023/02/15 10:49:02;;;;;;;34.57;22.77;;;4.20;99.90;;;;;;5083109;28;20474;-72
2023/02/15 10:51:40;;;;;;;44.10;24.40;;;4.20;99.90;;;;;;5081155;28;20451;-71
2023/02/15 10:54:20;;;;;;;38.70;25.00;;;4.30;99.90;;;;;;5082540;28;20442;-72
2023/02/15 10:56:56;;;;;;;41.70;24.67;;;4.40;99.90;;;;;;5085927;28;20485;-71
2023/02/15 11:00:01;;;;;;;38.80;24.90;;;4.50;99.90;;;;;;5084355;28;20442;-72
2023/02/15 11:02:40;;;;;;;39.40;23.10;;;4.60;99.90;;;;;;5071360;28;20513;-73
2023/02/15 11:05:23;;;;;;;34.00;21.97;;;4.60;99.90;;;;;;5082809;28;20540;-72
2023/02/15 11:07:53;;;;;;;39.43;24.37;;;4.70;99.90;;;;;;5083559;28;20434;-72
2023/02/15 11:10:31;;;;;;;41.40;24.60;;;4.70;99.90;;;;;;5081946;28;20446;-72
2023/02/15 11:12:59;;;;;;;40.47;23.50;;;4.80;99.90;;;;;;5082003;28;20434;-72
2023/02/15 11:15:32;;;;;;;35.30;22.20;;;4.80;99.90;;;;;;5082847;28;20805;-71
2023/02/15 11:18:07;;;;;;;37.20;22.30;;;5.00;99.90;;;;;;5084406;28;20466;-71
2023/02/15 11:20:39;;;;;;;35.70;21.70;;;5.10;99.90;;;;;;5084113;28;20518;-72
2023/02/15 11:23:15;;;;;;;38.60;22.20;;;5.20;99.90;;;;;;5085033;28;20782;-73
2023/02/15 11:25:44;;;;;;;38.97;23.40;;;5.30;99.90;;;;;;5104857;28;20437;-71
2023/02/15 11:28:20;;;;;;;40.47;21.70;;;5.40;99.90;;;;;;5103401;28;20521;-71
2023/02/15 11:30:52;;;;;;;43.90;21.73;;;5.50;99.90;;;;;;5104188;28;20447;-72
2023/02/15 11:33:26;;;;;;;38.20;22.40;;;5.60;99.90;;;;;;5104487;28;20441;-72
2023/02/15 11:35:56;;;;;;;40.53;24.03;;;5.80;99.90;;;;;;5102664;28;20438;-74
2023/02/15 11:38:28;;;;;;;46.33;23.30;;;5.90;99.90;;;;;;5103637;28;20445;-71
2023/02/15 11:40:59;;;;;;;40.20;21.57;;;6.10;99.90;;;;;;5103299;28;20549;-72
2023/02/15 11:43:32;;;;;;;35.47;21.20;;;6.20;99.90;;;;;;5104033;28;20514;-72
2023/02/15 11:45:58;;;;;;;29.73;20.43;;;6.30;99.90;;;;;;5103395;28;20516;-72
2023/02/15 11:48:28;;;;;;;38.73;21.83;;;6.40;99.90;;;;;;5102797;28;20449;-71
2023/02/15 11:50:54;;;;;;;35.80;21.17;;;6.40;99.90;;;;;;5102819;28;20775;-72
2023/02/15 11:53:24;;;;;;;35.40;22.10;;;6.50;99.90;;;;;;5102969;28;20492;-72
2023/02/15 11:55:52;;;;;;;32.90;20.30;;;6.60;99.90;;;;;;5103159;28;20513;-72
2023/02/15 11:58:29;;;;;;;38.17;22.27;;;6.60;99.90;;;;;;5102802;28;20509;-71
2023/02/15 12:01:01;;;;;;;30.33;19.43;;;6.60;99.90;;;;;;5103055;28;20533;-71
2023/02/15 12:03:40;;;;;;;34.67;20.70;;;6.80;99.90;;;;;;5103472;28;20452;-72
2023/02/15 12:06:17;;;;;;;34.13;20.50;;;6.90;99.90;;;;;;5103225;28;20874;-72
2023/02/15 12:08:52;;;;;;;32.27;20.97;;;7.00;99.90;;;;;;5102856;28;20509;-71
2023/02/15 12:11:25;;;;;;;36.23;21.50;;;7.20;99.90;;;;;;5103247;28;20493;-72
2023/02/15 12:13:57;;;;;;;30.73;19.73;;;7.50;99.90;;;;;;5102335;28;20456;-72
2023/02/15 12:16:25;;;;;;;28.27;19.57;;;8.20;99.90;;;;;;5102505;28;20483;-71
2023/02/15 12:18:58;;;;;;;33.53;19.77;;;9.20;99.90;;;;;;5104822;28;20453;-72
2023/02/15 12:21:29;;;;;;;30.60;18.73;;;10.30;99.90;;;;;;5105970;28;20461;-72
2023/02/15 12:24:00;;;;;;;26.10;17.97;;;11.20;99.90;;;;;;5105157;28;20524;-73
2023/02/15 12:26:29;;;;;;;25.70;17.77;;;12.20;99.90;;;;;;5105522;28;20452;-72
2023/02/15 12:29:01;;;;;;;29.47;19.23;;;12.60;99.90;;;;;;5105403;28;20453;-72
2023/02/15 12:31:32;;;;;;;28.47;19.40;;;12.80;99.90;;;;;;5103939;28;20440;-72
2023/02/15 12:34:03;;;;;;;27.00;17.80;;;13.40;99.90;;;;;;5105348;28;20974;-72
2023/02/15 12:36:33;;;;;;;26.57;18.40;;;13.90;99.90;;;;;;5105396;28;20438;-72
2023/02/15 12:39:07;;;;;;;25.50;17.20;;;14.20;99.90;;;;;;5104547;28;20441;-71
2023/02/15 12:41:35;;;;;;;25.30;18.70;;;14.20;99.90;;;;;;5103751;28;20532;-72
2023/02/15 12:44:08;;;;;;;24.53;18.20;;;14.50;99.90;;;;;;5102857;28;20464;-71
2023/02/15 12:46:35;;;;;;;24.93;18.23;;;14.70;99.90;;;;;;5103552;28;20578;-71
2023/02/15 12:49:20;;;;;;;25.60;16.23;;;14.60;99.90;;;;;;5102679;28;20459;-71
2023/02/15 12:51:50;;;;;;;24.83;16.53;;;15.10;99.90;;;;;;5101698;28;20516;-71
2023/02/15 12:54:39;;;;;;;25.37;18.10;;;15.70;99.90;;;;;;5099675;28;20489;-72
2023/02/15 12:57:25;;;;;;;22.00;17.37;;;16.50;97.20;;;;;;5101669;28;20437;-71
2023/02/15 12:59:53;;;;;;;24.03;17.90;;;16.30;93.90;;;;;;5101777;28;20437;-72
2023/02/15 13:02:42;;;;;;;23.90;17.20;;;16.40;94.90;;;;;;5101033;28;20560;-71
2023/02/15 13:05:20;;;;;;;25.37;17.43;;;16.40;90.90;;;;;;5102063;28;20880;-74
2023/02/15 13:07:51;;;;;;;25.07;17.03;;;16.50;90.70;;;;;;5102984;28;20469;-71
2023/02/15 13:10:28;;;;;;;24.07;18.10;;;16.50;90.60;;;;;;5102664;28;20512;-72
2023/02/15 13:12:57;;;;;;;21.60;17.07;;;16.60;91.20;;;;;;5101288;28;20437;-72
2023/02/15 13:15:32;;;;;;;22.63;17.40;;;17.30;90.20;;;;;;5100532;28;20477;-71
2023/02/15 13:18:00;;;;;;;24.57;17.10;;;17.70;83.30;;;;;;5100561;28;20433;-71